createdAt,value
2017-12-29T00:00:07.686Z,91.70
2017-12-29T00:02:35.137Z,91.70
2017-12-29T00:05:02.732Z,91.70
2017-12-29T00:07:30.379Z,91.70
2017-12-29T00:09:57.976Z,91.90
2017-12-29T00:12:25.389Z,91.70
2017-12-29T00:14:52.924Z,91.80
2017-12-29T00:17:20.379Z,92.10
2017-12-29T00:19:47.874Z,92.20
2017-12-29T00:22:15.343Z,91.90
2017-12-29T00:24:42.862Z,91.90
2017-12-29T00:27:11.101Z,91.80
2017-12-29T00:29:38.567Z,91.80
2017-12-29T00:32:06.831Z,91.70
2017-12-29T00:34:34.339Z,91.70
2017-12-29T00:37:01.836Z,91.70
2017-12-29T00:39:29.331Z,91.70
2017-12-29T00:41:56.819Z,91.70
2017-12-29T00:44:25.056Z,91.70
2017-12-29T00:46:52.514Z,91.70
2017-12-29T00:49:20.040Z,91.70
2017-12-29T00:51:48.307Z,91.50
2017-12-29T00:54:15.795Z,91.50
2017-12-29T00:56:43.303Z,91.70
2017-12-29T00:59:10.785Z,91.40
2017-12-29T01:01:38.275Z,91.40
2017-12-29T01:04:06.504Z,91.70
2017-12-29T01:06:33.965Z,91.60
2017-12-29T01:09:01.541Z,91.70
2017-12-29T01:11:29.776Z,91.90
2017-12-29T01:13:57.202Z,91.90
2017-12-29T01:16:24.677Z,91.70
2017-12-29T01:18:52.929Z,92.40
2017-12-29T01:21:20.366Z,92.40
2017-12-29T01:23:47.854Z,92.20
2017-12-29T01:26:15.326Z,92.10
2017-12-29T01:28:44.460Z,91.90
2017-12-29T01:31:12.955Z,91.90
2017-12-29T01:33:40.430Z,92.10
2017-12-29T01:36:07.877Z,92.40
2017-12-29T01:38:35.365Z,92.40
2017-12-29T01:41:02.981Z,92.50
2017-12-29T01:43:31.192Z,92.50
2017-12-29T01:45:58.664Z,92.40
2017-12-29T01:48:26.178Z,92.20
2017-12-29T01:50:53.674Z,92.10
2017-12-29T01:53:21.145Z,92.00
2017-12-29T01:55:48.603Z,92.10
2017-12-29T01:58:16.095Z,92.10
2017-12-29T02:00:43.547Z,92.40
2017-12-29T02:03:11.049Z,92.10
2017-12-29T02:05:38.516Z,92.30
2017-12-29T02:08:05.998Z,92.20
2017-12-29T02:10:33.487Z,92.10
2017-12-29T02:13:00.965Z,92.20
2017-12-29T02:15:28.413Z,92.10
2017-12-29T02:17:55.866Z,92.00
2017-12-29T02:20:23.419Z,92.30
2017-12-29T02:22:50.864Z,92.30
2017-12-29T02:25:19.116Z,92.70
2017-12-29T02:27:46.601Z,92.70
2017-12-29T02:30:14.543Z,93.00
2017-12-29T02:32:42.722Z,92.80
2017-12-29T02:35:10.368Z,92.80
2017-12-29T02:37:37.834Z,92.30
2017-12-29T02:40:05.287Z,92.40
2017-12-29T02:42:32.779Z,92.30
2017-12-29T02:45:00.257Z,92.70
2017-12-29T02:47:27.695Z,92.80
2017-12-29T02:49:55.178Z,92.80
2017-12-29T02:52:22.673Z,92.50
2017-12-29T02:54:50.946Z,92.60
2017-12-29T02:57:18.361Z,92.60
2017-12-29T02:59:45.884Z,92.70
2017-12-29T03:02:13.361Z,92.80
2017-12-29T03:04:40.866Z,92.20
2017-12-29T03:07:08.363Z,92.50
2017-12-29T03:09:36.597Z,92.80
2017-12-29T03:12:04.058Z,92.80
2017-12-29T03:14:31.513Z,93.10
2017-12-29T03:16:59.003Z,93.00
2017-12-29T03:19:26.460Z,92.70
2017-12-29T03:21:53.983Z,92.80
2017-12-29T03:24:21.447Z,92.80
2017-12-29T03:26:48.909Z,93.40
2017-12-29T03:29:16.402Z,93.20
2017-12-29T03:31:43.867Z,93.40
2017-12-29T03:34:11.330Z,93.30
2017-12-29T03:36:38.831Z,93.40
2017-12-29T03:39:06.298Z,93.40
2017-12-29T03:41:34.570Z,93.60
2017-12-29T03:44:02.830Z,94.00
2017-12-29T03:46:30.314Z,94.00
2017-12-29T03:48:58.536Z,93.50
2017-12-29T03:51:26.030Z,93.50
2017-12-29T03:53:53.473Z,93.40
2017-12-29T03:56:20.962Z,93.50
2017-12-29T03:58:48.446Z,93.20
2017-12-29T04:01:16.696Z,93.20
2017-12-29T04:03:44.222Z,93.10
2017-12-29T04:06:12.431Z,93.30
2017-12-29T04:08:39.917Z,93.20
2017-12-29T04:11:07.405Z,93.10
2017-12-29T04:13:34.846Z,92.70
2017-12-29T04:16:03.106Z,92.50
2017-12-29T04:18:30.616Z,92.50
2017-12-29T04:20:58.093Z,92.30
2017-12-29T04:23:25.560Z,91.90
2017-12-29T04:25:53.817Z,91.80
2017-12-29T04:28:22.061Z,91.60
2017-12-29T04:30:49.522Z,91.50
2017-12-29T04:33:17.005Z,91.70
2017-12-29T04:35:45.215Z,92.30
2017-12-29T04:38:12.746Z,92.30
2017-12-29T04:40:40.193Z,92.50
2017-12-29T04:43:07.786Z,92.80
2017-12-29T04:45:36.018Z,92.20
2017-12-29T04:48:03.512Z,92.20
2017-12-29T04:50:31.775Z,91.70
2017-12-29T04:52:59.294Z,91.70
2017-12-29T04:55:26.761Z,92.20
2017-12-29T04:57:54.258Z,92.40
2017-12-29T05:00:21.743Z,92.70
2017-12-29T05:02:49.985Z,92.70
2017-12-29T05:05:17.525Z,92.70
2017-12-29T05:07:44.971Z,93.00
2017-12-29T05:10:12.426Z,92.70
2017-12-29T05:12:39.928Z,92.20
2017-12-29T05:15:07.415Z,92.90
2017-12-29T05:17:34.859Z,92.60
2017-12-29T05:20:02.323Z,92.80
2017-12-29T05:22:29.786Z,92.90
2017-12-29T05:24:57.265Z,93.00
2017-12-29T05:27:25.640Z,92.50
2017-12-29T05:29:53.093Z,92.50
2017-12-29T05:32:20.539Z,92.70
2017-12-29T05:34:47.972Z,92.90
2017-12-29T05:37:15.449Z,92.60
2017-12-29T05:39:42.949Z,92.90
2017-12-29T05:42:10.661Z,92.60
2017-12-29T05:44:38.932Z,92.30
2017-12-29T05:47:07.164Z,92.20
2017-12-29T05:49:34.610Z,92.20
2017-12-29T05:52:02.086Z,92.10
2017-12-29T05:54:29.594Z,92.20
2017-12-29T05:56:57.819Z,92.60
2017-12-29T05:59:25.312Z,92.50
2017-12-29T06:01:52.786Z,92.20
2017-12-29T06:04:20.307Z,92.20
2017-12-29T06:06:47.769Z,92.40
2017-12-29T06:09:15.267Z,92.00
2017-12-29T06:11:43.552Z,92.00
2017-12-29T06:14:10.979Z,92.00
2017-12-29T06:16:38.456Z,91.60
2017-12-29T06:19:05.926Z,92.00
2017-12-29T06:21:33.396Z,92.00
2017-12-29T06:24:00.917Z,92.20
2017-12-29T06:26:28.383Z,92.10
2017-12-29T06:28:55.852Z,92.40
2017-12-29T06:31:23.339Z,92.40
2017-12-29T06:33:50.793Z,92.40
2017-12-29T06:36:18.415Z,92.20
2017-12-29T06:38:45.912Z,92.20
2017-12-29T06:41:13.392Z,92.60
2017-12-29T06:43:40.878Z,92.50
2017-12-29T06:46:08.340Z,92.60
2017-12-29T06:48:35.818Z,93.00
2017-12-29T06:51:04.071Z,92.60
2017-12-29T06:53:31.587Z,92.50
2017-12-29T06:55:59.037Z,92.40
2017-12-29T06:58:26.536Z,92.40
2017-12-29T07:00:54.009Z,92.40
2017-12-29T07:03:21.441Z,92.20
2017-12-29T07:05:48.921Z,92.20
2017-12-29T07:08:16.347Z,92.00
2017-12-29T07:10:43.851Z,91.90
2017-12-29T07:13:11.361Z,92.00
2017-12-29T07:15:39.642Z,91.90
2017-12-29T07:18:07.147Z,91.90
2017-12-29T07:20:34.590Z,91.90
2017-12-29T07:23:02.079Z,92.00
2017-12-29T07:25:30.312Z,92.20
2017-12-29T07:27:57.789Z,92.20
2017-12-29T07:30:25.262Z,92.10
2017-12-29T07:32:52.747Z,92.20
2017-12-29T07:35:20.208Z,91.50
2017-12-29T07:37:47.674Z,92.10
2017-12-29T07:40:15.166Z,92.00
2017-12-29T07:42:42.613Z,91.60
2017-12-29T07:45:10.130Z,91.40
2017-12-29T07:47:37.677Z,91.30
2017-12-29T07:50:05.169Z,91.30
2017-12-29T07:52:32.639Z,91.10
2017-12-29T07:55:00.107Z,91.30
2017-12-29T07:57:27.573Z,91.10
2017-12-29T07:59:55.076Z,90.90
2017-12-29T08:02:23.326Z,90.10
2017-12-29T08:04:50.801Z,90.00
2017-12-29T08:07:18.295Z,90.10
2017-12-29T08:09:45.742Z,90.20
2017-12-29T08:12:14.037Z,89.10
2017-12-29T08:14:42.273Z,87.80
2017-12-29T08:17:09.751Z,87.80
2017-12-29T08:19:38.290Z,85.30
2017-12-29T08:22:05.740Z,85.20
2017-12-29T08:24:33.298Z,86.00
2017-12-29T08:27:01.552Z,84.20
2017-12-29T08:29:29.034Z,84.10
2017-12-29T08:31:57.274Z,83.20
2017-12-29T08:34:24.797Z,83.10
2017-12-29T08:36:53.055Z,81.70
2017-12-29T08:39:20.488Z,81.70
2017-12-29T08:41:47.999Z,81.20
2017-12-29T08:44:15.529Z,80.30
2017-12-29T08:46:42.996Z,79.40
2017-12-29T08:49:11.310Z,78.00
2017-12-29T08:51:38.736Z,77.60
2017-12-29T08:54:07.697Z,76.10
2017-12-29T08:56:35.197Z,76.10
2017-12-29T08:59:02.709Z,75.90
2017-12-29T09:01:30.131Z,77.50
2017-12-29T09:03:58.368Z,75.90
2017-12-29T09:06:25.881Z,75.60
2017-12-29T09:08:53.365Z,75.10
2017-12-29T09:11:20.778Z,75.60
2017-12-29T09:13:48.247Z,75.40
2017-12-29T09:16:15.690Z,74.70
2017-12-29T09:18:43.194Z,74.60
2017-12-29T09:21:10.702Z,73.60
2017-12-29T09:23:38.174Z,72.60
2017-12-29T09:26:05.604Z,72.40
2017-12-29T09:28:33.103Z,72.40
2017-12-29T09:31:00.609Z,69.80
2017-12-29T09:33:28.883Z,72.10
2017-12-29T09:35:56.333Z,71.30
2017-12-29T09:38:24.627Z,71.00
2017-12-29T09:40:52.854Z,70.10
2017-12-29T09:43:20.324Z,70.10
2017-12-29T09:45:47.823Z,70.10
2017-12-29T09:48:16.142Z,70.10
2017-12-29T09:50:43.611Z,70.00
2017-12-29T09:53:11.085Z,69.60
2017-12-29T09:55:38.678Z,67.50
2017-12-29T09:58:06.152Z,68.30
2017-12-29T10:00:33.622Z,68.90
2017-12-29T10:03:01.199Z,67.90
2017-12-29T10:05:28.758Z,69.30
2017-12-29T10:07:56.266Z,67.80
2017-12-29T10:10:23.909Z,67.80
2017-12-29T10:12:51.437Z,66.10
2017-12-29T10:15:18.883Z,65.90
2017-12-29T10:17:46.408Z,67.30
2017-12-29T10:20:14.618Z,66.10
2017-12-29T10:22:42.100Z,66.10
2017-12-29T10:25:09.574Z,66.20
2017-12-29T10:27:37.064Z,65.60
2017-12-29T10:30:05.306Z,64.60
2017-12-29T10:32:32.811Z,64.60
2017-12-29T10:35:00.310Z,64.90
2017-12-29T10:37:27.937Z,64.50
2017-12-29T10:39:56.202Z,63.70
2017-12-29T10:42:23.641Z,63.60
2017-12-29T10:44:51.150Z,62.20
2017-12-29T10:47:18.656Z,62.10
2017-12-29T10:49:46.095Z,62.60
2017-12-29T10:52:13.617Z,62.50
2017-12-29T10:54:41.893Z,62.10
2017-12-29T10:57:10.102Z,61.60
2017-12-29T10:59:37.561Z,61.50
2017-12-29T11:02:05.067Z,61.40
2017-12-29T11:04:32.534Z,60.60
2017-12-29T11:07:00.496Z,61.40
2017-12-29T11:09:27.980Z,60.00
2017-12-29T11:11:55.392Z,59.70
2017-12-29T11:14:22.971Z,58.30
2017-12-29T11:16:51.154Z,58.80
2017-12-29T11:19:18.681Z,58.80
2017-12-29T11:21:46.157Z,57.60
2017-12-29T11:24:13.648Z,57.60
2017-12-29T11:26:41.127Z,58.10
2017-12-29T11:29:08.595Z,57.30
2017-12-29T11:31:36.076Z,56.30
2017-12-29T11:34:04.347Z,57.10
2017-12-29T11:36:31.822Z,57.10
2017-12-29T11:39:00.067Z,55.60
2017-12-29T11:41:27.577Z,55.50
2017-12-29T11:43:55.802Z,56.20
2017-12-29T11:46:23.234Z,56.10
2017-12-29T11:48:50.723Z,57.00
2017-12-29T11:51:18.210Z,55.70
2017-12-29T11:53:45.666Z,55.60
2017-12-29T11:56:13.196Z,55.20
2017-12-29T11:58:40.690Z,55.40
2017-12-29T12:01:08.146Z,55.60
2017-12-29T12:03:35.673Z,55.30
2017-12-29T12:06:03.166Z,55.30
2017-12-29T12:08:30.623Z,55.70
2017-12-29T12:10:58.129Z,55.40
2017-12-29T12:13:26.431Z,55.30
2017-12-29T12:15:53.959Z,55.30
2017-12-29T12:18:22.201Z,55.30
2017-12-29T12:20:49.675Z,56.10
2017-12-29T12:23:17.166Z,55.00
2017-12-29T12:25:44.616Z,54.50
2017-12-29T12:28:12.135Z,54.20
2017-12-29T12:30:39.628Z,54.80
2017-12-29T12:33:07.073Z,54.70
2017-12-29T12:35:34.577Z,53.50
2017-12-29T12:38:02.120Z,54.40
2017-12-29T12:40:29.611Z,54.30
2017-12-29T12:42:57.138Z,53.70
2017-12-29T12:45:24.613Z,53.90
2017-12-29T12:47:52.076Z,54.50
2017-12-29T12:50:19.562Z,54.60
2017-12-29T12:52:47.036Z,54.50
2017-12-29T12:55:14.560Z,54.40
2017-12-29T12:57:42.074Z,54.20
2017-12-29T13:00:09.775Z,54.00
2017-12-29T13:02:37.272Z,54.90
2017-12-29T13:05:04.784Z,54.50
2017-12-29T13:07:33.021Z,54.50
2017-12-29T13:10:02.037Z,54.60
2017-12-29T13:12:29.458Z,54.60
2017-12-29T13:14:56.972Z,54.30
2017-12-29T13:17:24.444Z,54.50
2017-12-29T13:19:51.899Z,54.60
2017-12-29T13:22:20.147Z,54.30
2017-12-29T13:24:47.639Z,54.10
2017-12-29T13:27:15.106Z,55.00
2017-12-29T13:29:42.579Z,54.50
2017-12-29T13:32:10.092Z,54.40
2017-12-29T13:34:37.593Z,54.70
2017-12-29T13:37:05.864Z,55.00
2017-12-29T13:39:33.368Z,55.00
2017-12-29T13:42:00.812Z,54.50
2017-12-29T13:44:28.304Z,54.50
2017-12-29T13:46:55.787Z,54.90
2017-12-29T13:49:23.289Z,54.90
2017-12-29T13:51:50.791Z,55.50
2017-12-29T13:54:18.271Z,55.00
2017-12-29T13:56:45.741Z,54.80
2017-12-29T13:59:13.291Z,55.20
2017-12-29T14:01:40.785Z,54.90
2017-12-29T14:04:08.271Z,55.60
2017-12-29T14:06:35.826Z,55.20
2017-12-29T14:09:04.118Z,55.00
2017-12-29T14:11:32.319Z,55.60
2017-12-29T14:13:59.761Z,55.40
2017-12-29T14:16:27.307Z,55.10
2017-12-29T14:18:55.538Z,56.00
2017-12-29T14:21:23.068Z,55.90
2017-12-29T14:23:50.573Z,55.80
2017-12-29T14:26:18.751Z,55.70
2017-12-29T14:28:46.169Z,55.60
2017-12-29T14:31:13.693Z,56.10
2017-12-29T14:33:41.187Z,55.60
2017-12-29T14:36:08.665Z,55.20
2017-12-29T14:38:37.039Z,54.20
2017-12-29T14:41:04.529Z,54.10
2017-12-29T14:43:32.010Z,54.90
2017-12-29T14:45:59.486Z,54.70
2017-12-29T14:48:26.999Z,55.60
2017-12-29T14:50:54.533Z,54.60
2017-12-29T14:53:21.974Z,54.40
2017-12-29T14:55:49.465Z,53.90
2017-12-29T14:58:16.987Z,53.80
2017-12-29T15:00:45.203Z,54.70
2017-12-29T15:03:13.509Z,54.80
2017-12-29T15:05:41.167Z,54.80
2017-12-29T15:08:09.386Z,55.60
2017-12-29T15:10:36.847Z,55.60
2017-12-29T15:13:04.583Z,55.50
2017-12-29T15:15:32.328Z,55.90
2017-12-29T15:18:00.730Z,57.60
2017-12-29T15:20:28.819Z,59.80
2017-12-29T15:22:56.704Z,62.20
2017-12-29T15:25:24.419Z,63.80
2017-12-29T15:27:52.276Z,67.20
2017-12-29T15:30:20.186Z,68.90
2017-12-29T15:32:48.593Z,71.60
2017-12-29T15:35:16.674Z,71.60
2017-12-29T15:37:44.317Z,71.70
2017-12-29T15:40:13.584Z,75.30
2017-12-29T15:42:42.045Z,78.60
2017-12-29T15:45:09.715Z,78.50
2017-12-29T15:47:37.947Z,82.30
2017-12-29T15:50:06.363Z,85.00
2017-12-29T15:52:33.965Z,84.80
2017-12-29T15:55:01.424Z,88.50
2017-12-29T15:57:28.979Z,91.00
2017-12-29T15:59:56.422Z,90.60
2017-12-29T16:02:24.051Z,90.90
2017-12-29T16:04:51.552Z,90.90
2017-12-29T16:07:19.069Z,91.10
2017-12-29T16:09:47.344Z,92.00
2017-12-29T16:12:15.231Z,92.00
2017-12-29T16:14:42.856Z,92.20
2017-12-29T16:17:10.382Z,91.80
2017-12-29T16:19:37.866Z,91.90
2017-12-29T16:22:05.346Z,91.80
2017-12-29T16:24:32.844Z,93.10
2017-12-29T16:27:00.335Z,93.60
2017-12-29T16:29:27.854Z,92.80
2017-12-29T16:31:55.359Z,92.80
2017-12-29T16:34:22.848Z,93.20
2017-12-29T16:36:50.317Z,93.20
2017-12-29T16:39:17.820Z,93.00
2017-12-29T16:41:46.066Z,91.90
2017-12-29T16:44:13.552Z,91.90
2017-12-29T16:46:41.836Z,92.10
2017-12-29T16:49:09.318Z,92.00
2017-12-29T16:51:36.780Z,92.00
2017-12-29T16:54:04.337Z,91.80
2017-12-29T16:56:31.811Z,91.80
2017-12-29T16:58:59.415Z,92.20
2017-12-29T17:01:26.879Z,91.80
2017-12-29T17:03:54.482Z,91.20
2017-12-29T17:06:21.922Z,91.30
2017-12-29T17:08:49.426Z,91.10
2017-12-29T17:11:17.656Z,90.60
2017-12-29T17:13:45.130Z,90.50
2017-12-29T17:16:12.648Z,90.30
2017-12-29T17:18:40.109Z,90.70
2017-12-29T17:21:08.395Z,90.40
2017-12-29T17:23:35.866Z,90.40
2017-12-29T17:26:03.420Z,90.40
2017-12-29T17:28:31.427Z,90.10
2017-12-29T17:30:59.653Z,91.30
2017-12-29T17:33:27.124Z,91.30
2017-12-29T17:35:54.641Z,91.60
2017-12-29T17:38:22.135Z,91.90
2017-12-29T17:40:49.617Z,92.60
2017-12-29T17:43:17.079Z,93.00
2017-12-29T17:45:45.455Z,93.10
2017-12-29T17:48:12.906Z,93.10
2017-12-29T17:50:40.420Z,93.20
2017-12-29T17:53:07.967Z,93.20
2017-12-29T17:55:35.453Z,93.00
2017-12-29T17:58:02.895Z,92.60
2017-12-29T18:00:30.416Z,92.50
2017-12-29T18:02:57.932Z,92.60
2017-12-29T18:05:25.430Z,92.30
2017-12-29T18:07:52.959Z,92.70
2017-12-29T18:10:20.462Z,92.30
2017-12-29T18:12:48.724Z,92.10
2017-12-29T18:15:16.292Z,92.00
2017-12-29T18:17:43.817Z,92.10
2017-12-29T18:20:11.338Z,91.90
2017-12-29T18:22:38.833Z,92.00
2017-12-29T18:25:06.303Z,92.00
2017-12-29T18:27:33.852Z,91.80
2017-12-29T18:30:01.415Z,91.30
2017-12-29T18:32:28.898Z,91.40
2017-12-29T18:34:56.392Z,91.60
2017-12-29T18:37:23.922Z,91.70
2017-12-29T18:39:51.740Z,92.00
2017-12-29T18:42:19.255Z,91.30
2017-12-29T18:44:46.767Z,91.10
2017-12-29T18:47:14.384Z,91.20
2017-12-29T18:49:42.680Z,91.60
2017-12-29T18:52:10.343Z,91.60
2017-12-29T18:54:37.917Z,91.80
2017-12-29T18:57:06.169Z,92.40
2017-12-29T18:59:33.760Z,92.40
2017-12-29T19:02:01.470Z,92.60
2017-12-29T19:04:28.963Z,92.70
2017-12-29T19:06:56.672Z,93.40
2017-12-29T19:09:24.167Z,93.90
2017-12-29T19:11:52.546Z,94.50
2017-12-29T19:14:20.006Z,94.50
2017-12-29T19:16:47.752Z,94.80
2017-12-29T19:19:16.236Z,95.00
2017-12-29T19:21:43.880Z,95.00
2017-12-29T19:24:11.488Z,95.60
2017-12-29T19:26:39.115Z,95.80
2017-12-29T19:29:06.913Z,95.70
2017-12-29T19:31:34.571Z,95.80
2017-12-29T19:34:02.147Z,96.20
2017-12-29T19:36:30.801Z,96.40
2017-12-29T19:38:59.134Z,96.60
2017-12-29T19:41:26.643Z,96.60
2017-12-29T19:43:54.206Z,96.50
2017-12-29T19:46:21.690Z,96.60
2017-12-29T19:48:49.220Z,96.70
2017-12-29T19:51:17.064Z,96.60
2017-12-29T19:53:44.589Z,96.70
2017-12-29T19:56:12.151Z,96.70
2017-12-29T19:58:39.684Z,96.80
2017-12-29T20:01:08.969Z,96.80
2017-12-29T20:03:37.417Z,96.80
2017-12-29T20:06:04.961Z,96.80
2017-12-29T20:08:33.139Z,96.70
2017-12-29T20:11:00.683Z,96.70
2017-12-29T20:13:28.088Z,96.80
2017-12-29T20:15:55.601Z,96.60
2017-12-29T20:18:23.161Z,96.80
2017-12-29T20:20:50.697Z,97.10
2017-12-29T20:23:18.232Z,97.00
2017-12-29T20:25:45.668Z,97.00
2017-12-29T20:28:13.125Z,97.10
2017-12-29T20:30:40.643Z,96.90
2017-12-29T20:33:08.106Z,96.90
2017-12-29T20:35:35.572Z,97.00
2017-12-29T20:38:03.075Z,97.20
2017-12-29T20:40:30.536Z,97.00
2017-12-29T20:42:58.013Z,96.80
2017-12-29T20:45:25.639Z,96.90
2017-12-29T20:47:53.462Z,96.70
2017-12-29T20:50:20.926Z,96.50
2017-12-29T20:52:48.451Z,96.60
2017-12-29T20:55:15.914Z,96.70
2017-12-29T20:57:43.440Z,97.00
2017-12-29T21:00:10.933Z,97.40
2017-12-29T21:02:38.452Z,97.70
2017-12-29T21:05:05.931Z,97.80
2017-12-29T21:07:34.202Z,98.00
2017-12-29T21:10:01.663Z,98.00
2017-12-29T21:12:29.112Z,98.00
2017-12-29T21:14:56.604Z,98.10
2017-12-29T21:17:24.126Z,98.10
2017-12-29T21:19:51.877Z,98.20
2017-12-29T21:22:19.432Z,98.10
2017-12-29T21:24:46.889Z,98.40
2017-12-29T21:27:15.183Z,98.40
2017-12-29T21:29:42.711Z,98.40
2017-12-29T21:32:10.176Z,98.30
2017-12-29T21:34:38.446Z,98.30
2017-12-29T21:37:05.972Z,98.30
2017-12-29T21:39:33.523Z,98.40
2017-12-29T21:42:01.018Z,98.40
2017-12-29T21:44:28.767Z,98.40
2017-12-29T21:46:57.016Z,98.40
2017-12-29T21:49:24.454Z,98.30
2017-12-29T21:51:51.949Z,98.40
2017-12-29T21:54:20.244Z,98.60
2017-12-29T21:56:47.662Z,98.40
2017-12-29T21:59:15.155Z,98.50
2017-12-29T22:01:42.692Z,98.60
2017-12-29T22:04:10.122Z,98.60
2017-12-29T22:06:37.672Z,99.00
2017-12-29T22:09:05.914Z,98.60
2017-12-29T22:11:33.442Z,98.80
2017-12-29T22:14:00.982Z,99.10
2017-12-29T22:16:28.826Z,99.20
2017-12-29T22:18:56.237Z,99.20
2017-12-29T22:21:23.717Z,99.30
2017-12-29T22:23:51.202Z,99.30
2017-12-29T22:26:18.682Z,99.40
2017-12-29T22:28:46.929Z,99.50
2017-12-29T22:31:15.145Z,99.50
2017-12-29T22:33:42.750Z,99.50
2017-12-29T22:36:10.168Z,99.40
2017-12-29T22:38:38.367Z,99.50
2017-12-29T22:41:05.936Z,99.40
2017-12-29T22:43:33.378Z,99.40
2017-12-29T22:46:00.939Z,99.40
2017-12-29T22:48:29.113Z,99.40
2017-12-29T22:50:56.570Z,99.40
2017-12-29T22:53:24.087Z,99.40
2017-12-29T22:55:51.580Z,99.30
2017-12-29T22:58:19.804Z,99.30
2017-12-29T23:00:47.438Z,99.30
2017-12-29T23:03:15.708Z,99.30
2017-12-29T23:05:43.204Z,99.30
2017-12-29T23:08:10.719Z,99.40
2017-12-29T23:10:38.212Z,99.40
2017-12-29T23:13:05.687Z,99.30
2017-12-29T23:15:33.185Z,99.40
2017-12-29T23:18:00.662Z,99.30
2017-12-29T23:20:29.664Z,99.40
2017-12-29T23:22:57.932Z,99.30
2017-12-29T23:25:25.378Z,99.30
2017-12-29T23:27:52.897Z,99.30
2017-12-29T23:30:21.142Z,99.20
2017-12-29T23:32:48.610Z,99.20
2017-12-29T23:35:16.078Z,99.30
2017-12-29T23:37:44.340Z,99.40
2017-12-29T23:40:11.806Z,99.30
2017-12-29T23:42:39.285Z,99.70
2017-12-29T23:45:07.578Z,99.40
2017-12-29T23:47:35.830Z,99.30
2017-12-29T23:50:03.346Z,99.30
2017-12-29T23:52:30.894Z,99.30
2017-12-29T23:54:58.402Z,99.30
2017-12-29T23:57:25.857Z,99.30
2017-12-29T23:59:53.348Z,99.30
